sensor_id;sensor_type;location;lat;lon;timestamp;P1;durP1;ratioP1;P2;durP2;ratioP2
63975;SDS011;50167;47.958;21.780;2023-05-07T00:00:58;6.33;;;5.73;;
63975;SDS011;50167;47.958;21.780;2023-05-07T00:03:25;6.33;;;4.53;;
63975;SDS011;50167;47.958;21.780;2023-05-07T00:05:54;5.77;;;4.47;;
63975;SDS011;50167;47.958;21.780;2023-05-07T00:08:21;5.17;;;4.63;;
63975;SDS011;50167;47.958;21.780;2023-05-07T00:10:47;6.43;;;5.40;;
63975;SDS011;50167;47.958;21.780;2023-05-07T00:13:14;6.40;;;5.47;;
63975;SDS011;50167;47.958;21.780;2023-05-07T00:15:40;5.87;;;5.20;;
63975;SDS011;50167;47.958;21.780;2023-05-07T00:18:06;6.03;;;5.27;;
63975;SDS011;50167;47.958;21.780;2023-05-07T00:20:33;4.97;;;4.47;;
63975;SDS011;50167;47.958;21.780;2023-05-07T00:22:59;9.43;;;5.53;;
63975;SDS011;50167;47.958;21.780;2023-05-07T00:25:25;6.87;;;4.67;;
63975;SDS011;50167;47.958;21.780;2023-05-07T00:27:51;5.67;;;4.67;;
63975;SDS011;50167;47.958;21.780;2023-05-07T00:30:18;4.97;;;4.47;;
63975;SDS011;50167;47.958;21.780;2023-05-07T00:32:44;6.57;;;4.80;;
63975;SDS011;50167;47.958;21.780;2023-05-07T00:35:13;4.70;;;4.23;;
63975;SDS011;50167;47.958;21.780;2023-05-07T00:37:40;7.03;;;5.27;;
63975;SDS011;50167;47.958;21.780;2023-05-07T00:40:06;6.50;;;5.90;;
63975;SDS011;50167;47.958;21.780;2023-05-07T00:42:33;6.33;;;5.00;;
63975;SDS011;50167;47.958;21.780;2023-05-07T00:44:59;9.17;;;5.47;;
63975;SDS011;50167;47.958;21.780;2023-05-07T00:47:25;8.03;;;5.67;;
63975;SDS011;50167;47.958;21.780;2023-05-07T00:49:52;7.43;;;5.37;;
63975;SDS011;50167;47.958;21.780;2023-05-07T00:52:18;6.70;;;5.23;;
63975;SDS011;50167;47.958;21.780;2023-05-07T00:54:47;5.33;;;4.83;;
63975;SDS011;50167;47.958;21.780;2023-05-07T00:57:13;7.20;;;6.03;;
63975;SDS011;50167;47.958;21.780;2023-05-07T00:59:40;6.20;;;5.50;;
63975;SDS011;50167;47.958;21.780;2023-05-07T01:02:07;6.80;;;6.00;;
63975;SDS011;50167;47.958;21.780;2023-05-07T01:04:33;10.20;;;6.23;;
63975;SDS011;50167;47.958;21.780;2023-05-07T01:07:00;7.40;;;6.63;;
63975;SDS011;50167;47.958;21.780;2023-05-07T01:09:28;12.43;;;7.17;;
63975;SDS011;50167;47.958;21.780;2023-05-07T01:11:55;10.93;;;6.70;;
63975;SDS011;50167;47.958;21.780;2023-05-07T01:14:23;8.50;;;6.33;;
63975;SDS011;50167;47.958;21.780;2023-05-07T01:16:51;8.33;;;6.37;;
63975;SDS011;50167;47.958;21.780;2023-05-07T01:19:17;8.47;;;6.47;;
63975;SDS011;50167;47.958;21.780;2023-05-07T01:24:33;8.67;;;6.87;;
63975;SDS011;50167;47.958;21.780;2023-05-07T01:27:03;7.43;;;6.30;;
63975;SDS011;50167;47.958;21.780;2023-05-07T01:29:29;10.60;;;6.53;;
63975;SDS011;50167;47.958;21.780;2023-05-07T01:31:59;12.63;;;6.70;;
63975;SDS011;50167;47.958;21.780;2023-05-07T01:36:54;8.83;;;7.70;;
63975;SDS011;50167;47.958;21.780;2023-05-07T01:39:24;7.87;;;7.07;;
63975;SDS011;50167;47.958;21.780;2023-05-07T01:41:53;9.90;;;8.43;;
63975;SDS011;50167;47.958;21.780;2023-05-07T01:44:22;9.67;;;8.70;;
63975;SDS011;50167;47.958;21.780;2023-05-07T01:46:49;8.67;;;7.67;;
63975;SDS011;50167;47.958;21.780;2023-05-07T01:49:16;9.50;;;7.80;;
63975;SDS011;50167;47.958;21.780;2023-05-07T01:51:43;14.13;;;8.63;;
63975;SDS011;50167;47.958;21.780;2023-05-07T01:54:09;11.50;;;7.90;;
63975;SDS011;50167;47.958;21.780;2023-05-07T01:56:36;9.30;;;8.40;;
63975;SDS011;50167;47.958;21.780;2023-05-07T01:59:02;14.50;;;8.77;;
63975;SDS011;50167;47.958;21.780;2023-05-07T02:01:28;9.50;;;8.10;;
63975;SDS011;50167;47.958;21.780;2023-05-07T02:03:56;9.57;;;7.67;;
63975;SDS011;50167;47.958;21.780;2023-05-07T02:06:22;13.90;;;8.60;;
63975;SDS011;50167;47.958;21.780;2023-05-07T02:08:49;9.40;;;8.03;;
63975;SDS011;50167;47.958;21.780;2023-05-07T02:11:15;9.50;;;8.30;;
63975;SDS011;50167;47.958;21.780;2023-05-07T02:13:43;11.40;;;8.53;;
63975;SDS011;50167;47.958;21.780;2023-05-07T02:16:10;10.17;;;8.73;;
63975;SDS011;50167;47.958;21.780;2023-05-07T02:18:37;10.47;;;8.90;;
63975;SDS011;50167;47.958;21.780;2023-05-07T02:21:03;12.17;;;9.33;;
63975;SDS011;50167;47.958;21.780;2023-05-07T02:23:29;10.00;;;9.00;;
63975;SDS011;50167;47.958;21.780;2023-05-07T02:25:55;12.83;;;9.07;;
63975;SDS011;50167;47.958;21.780;2023-05-07T02:28:21;11.00;;;8.77;;
63975;SDS011;50167;47.958;21.780;2023-05-07T02:30:48;16.00;;;8.73;;
63975;SDS011;50167;47.958;21.780;2023-05-07T02:33:14;9.10;;;8.20;;
63975;SDS011;50167;47.958;21.780;2023-05-07T02:35:40;10.67;;;8.97;;
63975;SDS011;50167;47.958;21.780;2023-05-07T02:38:09;9.63;;;8.63;;
63975;SDS011;50167;47.958;21.780;2023-05-07T02:40:37;15.48;;;10.18;;
63975;SDS011;50167;47.958;21.780;2023-05-07T02:43:06;10.70;;;8.35;;
63975;SDS011;50167;47.958;21.780;2023-05-07T02:45:32;11.60;;;9.53;;
63975;SDS011;50167;47.958;21.780;2023-05-07T02:47:59;13.70;;;9.07;;
63975;SDS011;50167;47.958;21.780;2023-05-07T02:50:25;9.53;;;8.53;;
63975;SDS011;50167;47.958;21.780;2023-05-07T02:52:52;11.10;;;9.07;;
63975;SDS011;50167;47.958;21.780;2023-05-07T02:55:18;11.80;;;9.10;;
63975;SDS011;50167;47.958;21.780;2023-05-07T02:57:44;12.53;;;9.40;;
63975;SDS011;50167;47.958;21.780;2023-05-07T03:00:11;12.90;;;9.43;;
63975;SDS011;50167;47.958;21.780;2023-05-07T03:02:40;11.47;;;10.30;;
63975;SDS011;50167;47.958;21.780;2023-05-07T03:05:06;15.53;;;10.03;;
63975;SDS011;50167;47.958;21.780;2023-05-07T03:07:33;10.60;;;9.17;;
63975;SDS011;50167;47.958;21.780;2023-05-07T03:10:01;20.13;;;9.07;;
63975;SDS011;50167;47.958;21.780;2023-05-07T03:12:28;15.10;;;9.70;;
63975;SDS011;50167;47.958;21.780;2023-05-07T03:14:54;11.30;;;9.00;;
63975;SDS011;50167;47.958;21.780;2023-05-07T03:17:20;12.37;;;9.47;;
63975;SDS011;50167;47.958;21.780;2023-05-07T03:19:47;11.73;;;9.47;;
63975;SDS011;50167;47.958;21.780;2023-05-07T03:22:13;9.93;;;8.90;;
63975;SDS011;50167;47.958;21.780;2023-05-07T03:24:40;12.63;;;9.00;;
63975;SDS011;50167;47.958;21.780;2023-05-07T03:27:06;10.10;;;9.10;;
63975;SDS011;50167;47.958;21.780;2023-05-07T03:29:32;11.60;;;8.93;;
63975;SDS011;50167;47.958;21.780;2023-05-07T03:31:58;10.07;;;9.07;;
63975;SDS011;50167;47.958;21.780;2023-05-07T03:34:24;10.27;;;8.50;;
63975;SDS011;50167;47.958;21.780;2023-05-07T03:36:50;9.53;;;8.53;;
63975;SDS011;50167;47.958;21.780;2023-05-07T03:39:16;11.47;;;9.77;;
63975;SDS011;50167;47.958;21.780;2023-05-07T03:41:43;10.97;;;9.70;;
63975;SDS011;50167;47.958;21.780;2023-05-07T03:44:09;10.13;;;8.90;;
63975;SDS011;50167;47.958;21.780;2023-05-07T03:46:35;16.10;;;9.83;;
63975;SDS011;50167;47.958;21.780;2023-05-07T03:49:01;10.57;;;8.97;;
63975;SDS011;50167;47.958;21.780;2023-05-07T03:51:27;11.63;;;9.10;;
63975;SDS011;50167;47.958;21.780;2023-05-07T03:53:53;11.80;;;9.60;;
63975;SDS011;50167;47.958;21.780;2023-05-07T03:56:21;15.10;;;10.13;;
63975;SDS011;50167;47.958;21.780;2023-05-07T03:58:50;12.03;;;10.17;;
63975;SDS011;50167;47.958;21.780;2023-05-07T04:01:16;10.93;;;9.47;;
63975;SDS011;50167;47.958;21.780;2023-05-07T04:07:43;12.43;;;9.98;;
63975;SDS011;50167;47.958;21.780;2023-05-07T04:10:09;17.00;;;10.93;;
63975;SDS011;50167;47.958;21.780;2023-05-07T04:12:36;13.90;;;10.57;;
63975;SDS011;50167;47.958;21.780;2023-05-07T04:15:02;14.13;;;11.23;;
63975;SDS011;50167;47.958;21.780;2023-05-07T04:17:29;11.73;;;9.63;;
63975;SDS011;50167;47.958;21.780;2023-05-07T04:19:55;13.03;;;11.67;;
63975;SDS011;50167;47.958;21.780;2023-05-07T04:22:22;16.30;;;14.40;;
63975;SDS011;50167;47.958;21.780;2023-05-07T04:24:48;18.57;;;15.80;;
63975;SDS011;50167;47.958;21.780;2023-05-07T04:27:15;14.90;;;11.53;;
63975;SDS011;50167;47.958;21.780;2023-05-07T04:29:41;12.83;;;11.20;;
63975;SDS011;50167;47.958;21.780;2023-05-07T04:32:08;11.10;;;9.57;;
63975;SDS011;50167;47.958;21.780;2023-05-07T04:34:35;11.03;;;9.73;;
63975;SDS011;50167;47.958;21.780;2023-05-07T04:37:01;12.83;;;9.83;;
63975;SDS011;50167;47.958;21.780;2023-05-07T04:39:27;13.30;;;9.83;;
63975;SDS011;50167;47.958;21.780;2023-05-07T04:41:53;11.30;;;10.20;;
63975;SDS011;50167;47.958;21.780;2023-05-07T04:44:19;12.60;;;9.17;;
63975;SDS011;50167;47.958;21.780;2023-05-07T04:46:46;12.50;;;9.23;;
63975;SDS011;50167;47.958;21.780;2023-05-07T04:49:12;11.93;;;9.80;;
63975;SDS011;50167;47.958;21.780;2023-05-07T04:51:38;11.00;;;9.70;;
63975;SDS011;50167;47.958;21.780;2023-05-07T04:54:06;10.83;;;9.73;;
63975;SDS011;50167;47.958;21.780;2023-05-07T04:56:32;13.10;;;9.73;;
63975;SDS011;50167;47.958;21.780;2023-05-07T04:58:58;13.70;;;10.77;;
63975;SDS011;50167;47.958;21.780;2023-05-07T05:01:24;13.27;;;10.13;;
63975;SDS011;50167;47.958;21.780;2023-05-07T05:03:50;12.13;;;10.40;;
63975;SDS011;50167;47.958;21.780;2023-05-07T05:06:16;14.20;;;10.20;;
63975;SDS011;50167;47.958;21.780;2023-05-07T05:08:43;12.37;;;9.40;;
63975;SDS011;50167;47.958;21.780;2023-05-07T05:11:09;11.27;;;10.17;;
63975;SDS011;50167;47.958;21.780;2023-05-07T05:13:35;13.07;;;10.83;;
63975;SDS011;50167;47.958;21.780;2023-05-07T05:16:01;12.37;;;10.90;;
63975;SDS011;50167;47.958;21.780;2023-05-07T05:18:27;13.47;;;11.40;;
63975;SDS011;50167;47.958;21.780;2023-05-07T05:20:53;15.23;;;12.10;;
63975;SDS011;50167;47.958;21.780;2023-05-07T05:23:19;12.97;;;11.33;;
63975;SDS011;50167;47.958;21.780;2023-05-07T05:25:47;12.23;;;10.93;;
63975;SDS011;50167;47.958;21.780;2023-05-07T05:28:13;12.90;;;10.80;;
63975;SDS011;50167;47.958;21.780;2023-05-07T05:30:39;13.70;;;10.50;;
63975;SDS011;50167;47.958;21.780;2023-05-07T05:33:06;13.07;;;11.37;;
63975;SDS011;50167;47.958;21.780;2023-05-07T05:35:32;15.90;;;10.50;;
63975;SDS011;50167;47.958;21.780;2023-05-07T05:37:58;15.73;;;11.00;;
63975;SDS011;50167;47.958;21.780;2023-05-07T05:40:26;12.60;;;11.17;;
63975;SDS011;50167;47.958;21.780;2023-05-07T05:42:52;14.50;;;12.40;;
63975;SDS011;50167;47.958;21.780;2023-05-07T05:45:18;11.57;;;10.47;;
63975;SDS011;50167;47.958;21.780;2023-05-07T05:47:45;15.67;;;10.47;;
63975;SDS011;50167;47.958;21.780;2023-05-07T05:50:11;10.77;;;9.53;;
63975;SDS011;50167;47.958;21.780;2023-05-07T05:52:37;13.87;;;10.20;;
63975;SDS011;50167;47.958;21.780;2023-05-07T05:55:04;15.53;;;10.30;;
63975;SDS011;50167;47.958;21.780;2023-05-07T05:57:31;15.40;;;10.83;;
63975;SDS011;50167;47.958;21.780;2023-05-07T05:59:57;13.93;;;9.63;;
63975;SDS011;50167;47.958;21.780;2023-05-07T06:02:23;12.70;;;8.87;;
63975;SDS011;50167;47.958;21.780;2023-05-07T06:04:50;10.07;;;8.97;;
63975;SDS011;50167;47.958;21.780;2023-05-07T06:07:16;12.90;;;8.70;;
63975;SDS011;50167;47.958;21.780;2023-05-07T06:09:42;10.87;;;8.33;;
63975;SDS011;50167;47.958;21.780;2023-05-07T06:12:08;12.57;;;8.63;;
63975;SDS011;50167;47.958;21.780;2023-05-07T06:14:35;9.67;;;8.03;;
63975;SDS011;50167;47.958;21.780;2023-05-07T06:17:01;12.43;;;9.17;;
63975;SDS011;50167;47.958;21.780;2023-05-07T06:19:27;11.13;;;8.53;;
63975;SDS011;50167;47.958;21.780;2023-05-07T06:21:53;10.53;;;7.77;;
63975;SDS011;50167;47.958;21.780;2023-05-07T06:24:21;11.67;;;9.23;;
63975;SDS011;50167;47.958;21.780;2023-05-07T06:26:48;9.67;;;8.50;;
63975;SDS011;50167;47.958;21.780;2023-05-07T06:29:14;9.00;;;7.80;;
63975;SDS011;50167;47.958;21.780;2023-05-07T06:31:40;8.20;;;7.33;;
63975;SDS011;50167;47.958;21.780;2023-05-07T06:34:07;10.47;;;8.00;;
63975;SDS011;50167;47.958;21.780;2023-05-07T06:36:33;9.60;;;8.60;;
63975;SDS011;50167;47.958;21.780;2023-05-07T06:39:00;7.77;;;6.93;;
63975;SDS011;50167;47.958;21.780;2023-05-07T06:41:26;9.77;;;7.30;;
63975;SDS011;50167;47.958;21.780;2023-05-07T06:43:53;11.13;;;8.00;;
63975;SDS011;50167;47.958;21.780;2023-05-07T06:46:19;11.20;;;7.00;;
63975;SDS011;50167;47.958;21.780;2023-05-07T06:48:45;6.83;;;6.10;;
63975;SDS011;50167;47.958;21.780;2023-05-07T06:51:11;10.00;;;7.70;;
63975;SDS011;50167;47.958;21.780;2023-05-07T06:53:37;10.80;;;7.60;;
63975;SDS011;50167;47.958;21.780;2023-05-07T06:56:03;9.17;;;7.60;;
63975;SDS011;50167;47.958;21.780;2023-05-07T06:58:30;8.47;;;7.13;;
63975;SDS011;50167;47.958;21.780;2023-05-07T07:00:56;9.77;;;7.07;;
63975;SDS011;50167;47.958;21.780;2023-05-07T07:03:22;10.53;;;7.60;;
63975;SDS011;50167;47.958;21.780;2023-05-07T07:05:51;16.77;;;7.50;;
63975;SDS011;50167;47.958;21.780;2023-05-07T07:08:20;9.53;;;7.80;;
63975;SDS011;50167;47.958;21.780;2023-05-07T07:10:47;9.17;;;7.93;;
63975;SDS011;50167;47.958;21.780;2023-05-07T07:13:14;10.67;;;7.73;;
63975;SDS011;50167;47.958;21.780;2023-05-07T07:15:40;9.33;;;8.17;;
63975;SDS011;50167;47.958;21.780;2023-05-07T07:18:07;11.13;;;8.47;;
63975;SDS011;50167;47.958;21.780;2023-05-07T07:20:33;9.87;;;8.30;;
63975;SDS011;50167;47.958;21.780;2023-05-07T07:22:59;10.17;;;8.20;;
63975;SDS011;50167;47.958;21.780;2023-05-07T07:25:25;9.27;;;8.03;;
63975;SDS011;50167;47.958;21.780;2023-05-07T07:27:51;10.43;;;8.17;;
63975;SDS011;50167;47.958;21.780;2023-05-07T07:30:18;10.97;;;8.60;;
63975;SDS011;50167;47.958;21.780;2023-05-07T07:32:46;15.27;;;8.17;;
63975;SDS011;50167;47.958;21.780;2023-05-07T07:35:14;9.80;;;8.30;;
63975;SDS011;50167;47.958;21.780;2023-05-07T07:37:40;16.80;;;7.97;;
63975;SDS011;50167;47.958;21.780;2023-05-07T07:40:07;10.33;;;6.50;;
63975;SDS011;50167;47.958;21.780;2023-05-07T07:42:34;10.63;;;7.60;;
63975;SDS011;50167;47.958;21.780;2023-05-07T07:45:00;8.33;;;6.57;;
63975;SDS011;50167;47.958;21.780;2023-05-07T07:47:26;8.63;;;7.07;;
63975;SDS011;50167;47.958;21.780;2023-05-07T07:49:52;13.10;;;8.27;;
63975;SDS011;50167;47.958;21.780;2023-05-07T07:52:18;7.63;;;6.90;;
63975;SDS011;50167;47.958;21.780;2023-05-07T07:54:45;10.80;;;7.33;;
63975;SDS011;50167;47.958;21.780;2023-05-07T07:57:11;8.13;;;7.23;;
63975;SDS011;50167;47.958;21.780;2023-05-07T07:59:37;9.07;;;6.93;;
63975;SDS011;50167;47.958;21.780;2023-05-07T08:02:05;11.43;;;8.50;;
63975;SDS011;50167;47.958;21.780;2023-05-07T08:04:31;10.53;;;8.57;;
63975;SDS011;50167;47.958;21.780;2023-05-07T08:06:59;9.33;;;8.27;;
63975;SDS011;50167;47.958;21.780;2023-05-07T08:09:25;9.23;;;8.27;;
63975;SDS011;50167;47.958;21.780;2023-05-07T08:11:51;10.83;;;8.93;;
63975;SDS011;50167;47.958;21.780;2023-05-07T08:14:17;10.63;;;7.67;;
63975;SDS011;50167;47.958;21.780;2023-05-07T08:16:43;9.17;;;8.27;;
63975;SDS011;50167;47.958;21.780;2023-05-07T08:21:43;11.53;;;8.90;;
63975;SDS011;50167;47.958;21.780;2023-05-07T08:24:15;10.93;;;8.83;;
63975;SDS011;50167;47.958;21.780;2023-05-07T08:26:43;11.40;;;7.77;;
63975;SDS011;50167;47.958;21.780;2023-05-07T08:29:10;8.63;;;7.78;;
63975;SDS011;50167;47.958;21.780;2023-05-07T08:31:36;11.38;;;7.55;;
63975;SDS011;50167;47.958;21.780;2023-05-07T08:34:07;10.95;;;7.35;;
63975;SDS011;50167;47.958;21.780;2023-05-07T08:36:33;7.75;;;6.97;;
63975;SDS011;50167;47.958;21.780;2023-05-07T08:39:00;9.55;;;8.43;;
63975;SDS011;50167;47.958;21.780;2023-05-07T08:41:26;9.63;;;7.83;;
63975;SDS011;50167;47.958;21.780;2023-05-07T08:43:52;8.83;;;7.90;;
63975;SDS011;50167;47.958;21.780;2023-05-07T08:46:22;10.55;;;7.70;;
63975;SDS011;50167;47.958;21.780;2023-05-07T08:48:49;10.08;;;8.38;;
63975;SDS011;50167;47.958;21.780;2023-05-07T08:51:18;10.05;;;8.55;;
63975;SDS011;50167;47.958;21.780;2023-05-07T08:53:46;10.65;;;8.98;;
63975;SDS011;50167;47.958;21.780;2023-05-07T08:56:15;8.65;;;7.75;;
63975;SDS011;50167;47.958;21.780;2023-05-07T08:58:42;9.43;;;8.63;;
63975;SDS011;50167;47.958;21.780;2023-05-07T09:01:15;9.28;;;8.13;;
63975;SDS011;50167;47.958;21.780;2023-05-07T09:03:45;10.18;;;9.18;;
63975;SDS011;50167;47.958;21.780;2023-05-07T09:06:12;10.40;;;9.05;;
63975;SDS011;50167;47.958;21.780;2023-05-07T09:08:38;9.08;;;8.20;;
63975;SDS011;50167;47.958;21.780;2023-05-07T09:11:04;9.45;;;7.37;;
63975;SDS011;50167;47.958;21.780;2023-05-07T09:13:31;8.40;;;7.22;;
63975;SDS011;50167;47.958;21.780;2023-05-07T09:15:57;8.60;;;7.25;;
63975;SDS011;50167;47.958;21.780;2023-05-07T09:18:26;8.40;;;7.58;;
63975;SDS011;50167;47.958;21.780;2023-05-07T09:20:53;11.18;;;7.60;;
63975;SDS011;50167;47.958;21.780;2023-05-07T09:23:20;8.45;;;7.65;;
63975;SDS011;50167;47.958;21.780;2023-05-07T09:25:46;8.58;;;7.40;;
63975;SDS011;50167;47.958;21.780;2023-05-07T09:28:13;10.55;;;7.28;;
63975;SDS011;50167;47.958;21.780;2023-05-07T09:30:39;7.70;;;6.87;;
63975;SDS011;50167;47.958;21.780;2023-05-07T09:33:05;7.55;;;6.83;;
63975;SDS011;50167;47.958;21.780;2023-05-07T09:35:32;8.08;;;7.10;;
63975;SDS011;50167;47.958;21.780;2023-05-07T09:37:58;7.22;;;6.33;;
63975;SDS011;50167;47.958;21.780;2023-05-07T09:40:27;8.50;;;7.40;;
63975;SDS011;50167;47.958;21.780;2023-05-07T09:42:55;13.53;;;8.20;;
63975;SDS011;50167;47.958;21.780;2023-05-07T09:45:22;11.78;;;7.72;;
63975;SDS011;50167;47.958;21.780;2023-05-07T09:47:55;12.33;;;9.20;;
63975;SDS011;50167;47.958;21.780;2023-05-07T09:50:27;8.48;;;7.42;;
63975;SDS011;50167;47.958;21.780;2023-05-07T09:52:55;9.38;;;8.23;;
63975;SDS011;50167;47.958;21.780;2023-05-07T09:55:22;8.80;;;7.50;;
63975;SDS011;50167;47.958;21.780;2023-05-07T09:57:50;8.50;;;7.58;;
63975;SDS011;50167;47.958;21.780;2023-05-07T10:00:22;8.85;;;8.05;;
63975;SDS011;50167;47.958;21.780;2023-05-07T10:02:49;13.95;;;9.10;;
63975;SDS011;50167;47.958;21.780;2023-05-07T10:05:18;9.68;;;8.53;;
63975;SDS011;50167;47.958;21.780;2023-05-07T10:07:48;16.93;;;9.55;;
63975;SDS011;50167;47.958;21.780;2023-05-07T10:10:16;13.13;;;8.80;;
63975;SDS011;50167;47.958;21.780;2023-05-07T10:12:44;9.90;;;8.77;;
63975;SDS011;50167;47.958;21.780;2023-05-07T10:15:11;9.95;;;8.05;;
63975;SDS011;50167;47.958;21.780;2023-05-07T10:17:40;9.05;;;8.18;;
63975;SDS011;50167;47.958;21.780;2023-05-07T10:20:07;10.25;;;7.00;;
63975;SDS011;50167;47.958;21.780;2023-05-07T10:22:38;9.83;;;7.33;;
63975;SDS011;50167;47.958;21.780;2023-05-07T10:25:30;9.70;;;7.87;;
63975;SDS011;50167;47.958;21.780;2023-05-07T10:27:49;8.93;;;7.10;;
63975;SDS011;50167;47.958;21.780;2023-05-07T10:30:30;8.53;;;7.47;;
63975;SDS011;50167;47.958;21.780;2023-05-07T10:33:15;11.00;;;6.70;;
63975;SDS011;50167;47.958;21.780;2023-05-07T10:35:45;9.10;;;5.83;;
63975;SDS011;50167;47.958;21.780;2023-05-07T10:38:13;6.50;;;5.78;;
63975;SDS011;50167;47.958;21.780;2023-05-07T10:40:39;8.58;;;7.05;;
63975;SDS011;50167;47.958;21.780;2023-05-07T10:43:06;7.90;;;6.60;;
63975;SDS011;50167;47.958;21.780;2023-05-07T10:45:32;9.73;;;7.12;;
63975;SDS011;50167;47.958;21.780;2023-05-07T10:48:12;8.93;;;6.83;;
63975;SDS011;50167;47.958;21.780;2023-05-07T10:50:41;11.50;;;7.55;;
63975;SDS011;50167;47.958;21.780;2023-05-07T10:58:46;8.10;;;7.35;;
63975;SDS011;50167;47.958;21.780;2023-05-07T11:01:13;10.00;;;6.35;;
63975;SDS011;50167;47.958;21.780;2023-05-07T11:04:26;7.47;;;6.78;;
63975;SDS011;50167;47.958;21.780;2023-05-07T11:06:43;7.60;;;6.87;;
63975;SDS011;50167;47.958;21.780;2023-05-07T11:09:53;8.00;;;6.37;;
63975;SDS011;50167;47.958;21.780;2023-05-07T11:15:09;7.08;;;6.37;;
63975;SDS011;50167;47.958;21.780;2023-05-07T11:17:57;8.30;;;6.78;;
63975;SDS011;50167;47.958;21.780;2023-05-07T11:26:08;6.75;;;5.47;;
63975;SDS011;50167;47.958;21.780;2023-05-07T11:28:38;8.25;;;5.95;;
63975;SDS011;50167;47.958;21.780;2023-05-07T11:31:10;6.05;;;4.97;;
63975;SDS011;50167;47.958;21.780;2023-05-07T11:33:37;10.00;;;5.65;;
63975;SDS011;50167;47.958;21.780;2023-05-07T11:36:04;13.10;;;4.83;;
63975;SDS011;50167;47.958;21.780;2023-05-07T11:38:36;4.75;;;3.87;;
63975;SDS011;50167;47.958;21.780;2023-05-07T11:41:04;5.72;;;4.92;;
63975;SDS011;50167;47.958;21.780;2023-05-07T11:43:31;5.47;;;4.97;;
63975;SDS011;50167;47.958;21.780;2023-05-07T11:46:08;6.80;;;4.50;;
63975;SDS011;50167;47.958;21.780;2023-05-07T11:48:36;5.42;;;4.58;;
63975;SDS011;50167;47.958;21.780;2023-05-07T11:51:03;5.30;;;3.95;;
63975;SDS011;50167;47.958;21.780;2023-05-07T11:53:40;5.50;;;4.28;;
63975;SDS011;50167;47.958;21.780;2023-05-07T11:58:41;6.00;;;4.60;;
63975;SDS011;50167;47.958;21.780;2023-05-07T12:01:10;4.75;;;4.20;;
63975;SDS011;50167;47.958;21.780;2023-05-07T12:03:41;7.20;;;4.40;;
63975;SDS011;50167;47.958;21.780;2023-05-07T12:06:11;6.05;;;4.40;;
63975;SDS011;50167;47.958;21.780;2023-05-07T12:08:40;5.83;;;3.65;;
63975;SDS011;50167;47.958;21.780;2023-05-07T12:11:09;8.00;;;3.72;;
63975;SDS011;50167;47.958;21.780;2023-05-07T12:13:39;5.35;;;4.72;;
63975;SDS011;50167;47.958;21.780;2023-05-07T12:16:07;5.95;;;4.70;;
63975;SDS011;50167;47.958;21.780;2023-05-07T12:18:34;3.83;;;3.35;;
63975;SDS011;50167;47.958;21.780;2023-05-07T12:21:01;7.92;;;3.95;;
63975;SDS011;50167;47.958;21.780;2023-05-07T12:23:29;5.17;;;4.62;;
63975;SDS011;50167;47.958;21.780;2023-05-07T12:25:56;4.22;;;3.83;;
63975;SDS011;50167;47.958;21.780;2023-05-07T12:28:23;5.35;;;4.28;;
63975;SDS011;50167;47.958;21.780;2023-05-07T12:30:50;6.42;;;5.58;;
63975;SDS011;50167;47.958;21.780;2023-05-07T12:33:18;4.65;;;4.03;;
63975;SDS011;50167;47.958;21.780;2023-05-07T12:35:52;4.08;;;3.67;;
63975;SDS011;50167;47.958;21.780;2023-05-07T12:38:20;5.95;;;3.90;;
63975;SDS011;50167;47.958;21.780;2023-05-07T12:40:48;9.18;;;3.92;;
63975;SDS011;50167;47.958;21.780;2023-05-07T12:43:26;6.60;;;4.25;;
63975;SDS011;50167;47.958;21.780;2023-05-07T12:45:56;5.62;;;3.55;;
63975;SDS011;50167;47.958;21.780;2023-05-07T12:48:26;4.65;;;4.15;;
63975;SDS011;50167;47.958;21.780;2023-05-07T12:50:53;6.40;;;4.65;;
63975;SDS011;50167;47.958;21.780;2023-05-07T12:53:21;5.65;;;4.03;;
63975;SDS011;50167;47.958;21.780;2023-05-07T12:55:57;4.90;;;4.15;;
63975;SDS011;50167;47.958;21.780;2023-05-07T12:58:26;6.40;;;4.22;;
63975;SDS011;50167;47.958;21.780;2023-05-07T13:00:56;4.45;;;3.60;;
63975;SDS011;50167;47.958;21.780;2023-05-07T13:03:29;3.90;;;3.60;;
63975;SDS011;50167;47.958;21.780;2023-05-07T13:05:58;6.87;;;4.05;;
63975;SDS011;50167;47.958;21.780;2023-05-07T13:08:32;7.28;;;3.90;;
63975;SDS011;50167;47.958;21.780;2023-05-07T13:11:01;4.08;;;3.72;;
63975;SDS011;50167;47.958;21.780;2023-05-07T13:13:33;10.10;;;4.12;;
63975;SDS011;50167;47.958;21.780;2023-05-07T13:16:02;7.40;;;3.90;;
63975;SDS011;50167;47.958;21.780;2023-05-07T13:18:30;6.58;;;4.78;;
63975;SDS011;50167;47.958;21.780;2023-05-07T13:20:58;4.30;;;3.90;;
63975;SDS011;50167;47.958;21.780;2023-05-07T13:23:25;4.20;;;3.80;;
63975;SDS011;50167;47.958;21.780;2023-05-07T13:25:52;8.90;;;4.45;;
63975;SDS011;50167;47.958;21.780;2023-05-07T13:28:23;8.28;;;3.95;;
63975;SDS011;50167;47.958;21.780;2023-05-07T13:30:52;3.85;;;3.02;;
63975;SDS011;50167;47.958;21.780;2023-05-07T13:33:19;7.20;;;3.60;;
63975;SDS011;50167;47.958;21.780;2023-05-07T13:35:46;5.53;;;3.60;;
63975;SDS011;50167;47.958;21.780;2023-05-07T13:38:12;6.28;;;3.55;;
63975;SDS011;50167;47.958;21.780;2023-05-07T13:40:38;7.03;;;3.10;;
63975;SDS011;50167;47.958;21.780;2023-05-07T13:43:05;10.78;;;3.20;;
63975;SDS011;50167;47.958;21.780;2023-05-07T13:45:31;8.95;;;3.83;;
63975;SDS011;50167;47.958;21.780;2023-05-07T13:47:57;7.45;;;3.60;;
63975;SDS011;50167;47.958;21.780;2023-05-07T13:50:24;13.48;;;3.40;;
63975;SDS011;50167;47.958;21.780;2023-05-07T13:52:52;15.32;;;3.08;;
63975;SDS011;50167;47.958;21.780;2023-05-07T13:55:18;5.47;;;3.12;;
63975;SDS011;50167;47.958;21.780;2023-05-07T13:57:46;10.85;;;3.22;;
63975;SDS011;50167;47.958;21.780;2023-05-07T14:00:13;5.42;;;2.65;;
63975;SDS011;50167;47.958;21.780;2023-05-07T14:02:41;5.67;;;2.58;;
63975;SDS011;50167;47.958;21.780;2023-05-07T14:05:08;4.83;;;2.08;;
63975;SDS011;50167;47.958;21.780;2023-05-07T14:07:35;4.78;;;2.20;;
63975;SDS011;50167;47.958;21.780;2023-05-07T14:10:01;6.85;;;2.77;;
63975;SDS011;50167;47.958;21.780;2023-05-07T14:12:28;9.83;;;2.52;;
63975;SDS011;50167;47.958;21.780;2023-05-07T14:14:54;5.30;;;2.30;;
63975;SDS011;50167;47.958;21.780;2023-05-07T14:17:21;9.00;;;2.02;;
63975;SDS011;50167;47.958;21.780;2023-05-07T14:19:49;5.85;;;1.95;;
63975;SDS011;50167;47.958;21.780;2023-05-07T14:22:16;5.90;;;2.22;;
63975;SDS011;50167;47.958;21.780;2023-05-07T14:24:42;8.53;;;3.72;;
63975;SDS011;50167;47.958;21.780;2023-05-07T14:27:08;6.80;;;2.65;;
63975;SDS011;50167;47.958;21.780;2023-05-07T14:29:34;8.50;;;2.55;;
63975;SDS011;50167;47.958;21.780;2023-05-07T14:32:02;5.45;;;2.70;;
63975;SDS011;50167;47.958;21.780;2023-05-07T14:34:28;8.75;;;2.25;;
63975;SDS011;50167;47.958;21.780;2023-05-07T14:36:55;4.03;;;2.90;;
63975;SDS011;50167;47.958;21.780;2023-05-07T14:39:21;11.28;;;4.33;;
63975;SDS011;50167;47.958;21.780;2023-05-07T14:41:47;2.95;;;2.47;;
63975;SDS011;50167;47.958;21.780;2023-05-07T14:44:13;11.25;;;2.55;;
63975;SDS011;50167;47.958;21.780;2023-05-07T14:46:39;3.43;;;1.87;;
63975;SDS011;50167;47.958;21.780;2023-05-07T14:49:05;3.00;;;1.90;;
63975;SDS011;50167;47.958;21.780;2023-05-07T14:51:34;5.23;;;2.27;;
63975;SDS011;50167;47.958;21.780;2023-05-07T14:54:00;3.47;;;2.23;;
63975;SDS011;50167;47.958;21.780;2023-05-07T14:56:27;4.23;;;1.80;;
63975;SDS011;50167;47.958;21.780;2023-05-07T14:58:53;6.93;;;2.20;;